sensor_id;sensor_type;location;lat;lon;timestamp;P1;durP1;ratioP1;P2;durP2;ratioP2
72156;SDS011;60035;52.122;5.406;2022-09-24T00:01:21;38.60;;;19.00;;
72156;SDS011;60035;52.122;5.406;2022-09-24T00:03:51;36.78;;;18.50;;
72156;SDS011;60035;52.122;5.406;2022-09-24T00:06:26;38.38;;;19.40;;
72156;SDS011;60035;52.122;5.406;2022-09-24T00:08:54;36.83;;;16.83;;
72156;SDS011;60035;52.122;5.406;2022-09-24T00:11:22;37.10;;;17.73;;
72156;SDS011;60035;52.122;5.406;2022-09-24T00:13:50;33.63;;;17.20;;
72156;SDS011;60035;52.122;5.406;2022-09-24T00:16:19;34.58;;;16.83;;
72156;SDS011;60035;52.122;5.406;2022-09-24T00:18:48;34.47;;;17.15;;
72156;SDS011;60035;52.122;5.406;2022-09-24T00:23:53;28.90;;;15.32;;
72156;SDS011;60035;52.122;5.406;2022-09-24T00:26:21;32.83;;;16.00;;
72156;SDS011;60035;52.122;5.406;2022-09-24T00:29:07;32.88;;;16.08;;
72156;SDS011;60035;52.122;5.406;2022-09-24T00:31:35;29.65;;;14.07;;
72156;SDS011;60035;52.122;5.406;2022-09-24T00:34:02;29.17;;;15.10;;
72156;SDS011;60035;52.122;5.406;2022-09-24T00:36:29;29.75;;;13.85;;
72156;SDS011;60035;52.122;5.406;2022-09-24T00:38:56;28.33;;;12.90;;
72156;SDS011;60035;52.122;5.406;2022-09-24T00:41:26;26.42;;;13.32;;
72156;SDS011;60035;52.122;5.406;2022-09-24T00:46:55;29.25;;;13.55;;
72156;SDS011;60035;52.122;5.406;2022-09-24T00:49:17;28.70;;;14.43;;
72156;SDS011;60035;52.122;5.406;2022-09-24T00:51:46;30.02;;;14.32;;
72156;SDS011;60035;52.122;5.406;2022-09-24T00:54:16;28.02;;;13.40;;
72156;SDS011;60035;52.122;5.406;2022-09-24T00:56:48;27.60;;;13.77;;
72156;SDS011;60035;52.122;5.406;2022-09-24T00:59:17;27.52;;;13.23;;
72156;SDS011;60035;52.122;5.406;2022-09-24T01:01:46;27.30;;;13.05;;
72156;SDS011;60035;52.122;5.406;2022-09-24T01:04:14;28.63;;;13.23;;
72156;SDS011;60035;52.122;5.406;2022-09-24T01:06:42;25.70;;;12.57;;
72156;SDS011;60035;52.122;5.406;2022-09-24T01:09:09;25.83;;;13.23;;
72156;SDS011;60035;52.122;5.406;2022-09-24T01:11:44;26.48;;;12.85;;
72156;SDS011;60035;52.122;5.406;2022-09-24T01:14:33;26.85;;;13.55;;
72156;SDS011;60035;52.122;5.406;2022-09-24T01:17:11;26.98;;;12.55;;
72156;SDS011;60035;52.122;5.406;2022-09-24T01:20:12;26.58;;;12.60;;
72156;SDS011;60035;52.122;5.406;2022-09-24T01:22:52;26.13;;;12.13;;
72156;SDS011;60035;52.122;5.406;2022-09-24T01:31:04;29.25;;;13.88;;
72156;SDS011;60035;52.122;5.406;2022-09-24T01:33:40;26.90;;;13.07;;
72156;SDS011;60035;52.122;5.406;2022-09-24T01:36:08;30.13;;;13.57;;
72156;SDS011;60035;52.122;5.406;2022-09-24T01:38:39;26.33;;;13.10;;
72156;SDS011;60035;52.122;5.406;2022-09-24T01:41:09;30.05;;;13.50;;
72156;SDS011;60035;52.122;5.406;2022-09-24T01:43:38;31.33;;;14.88;;
72156;SDS011;60035;52.122;5.406;2022-09-24T01:46:05;30.30;;;16.05;;
72156;SDS011;60035;52.122;5.406;2022-09-24T01:48:36;35.22;;;15.35;;
72156;SDS011;60035;52.122;5.406;2022-09-24T01:51:10;31.10;;;13.85;;
72156;SDS011;60035;52.122;5.406;2022-09-24T01:53:46;34.33;;;15.02;;
72156;SDS011;60035;52.122;5.406;2022-09-24T01:56:39;30.23;;;15.55;;
72156;SDS011;60035;52.122;5.406;2022-09-24T01:59:18;33.42;;;15.32;;
72156;SDS011;60035;52.122;5.406;2022-09-24T02:01:58;34.33;;;14.55;;
72156;SDS011;60035;52.122;5.406;2022-09-24T02:04:29;37.90;;;15.20;;
72156;SDS011;60035;52.122;5.406;2022-09-24T02:07:16;36.10;;;16.92;;
72156;SDS011;60035;52.122;5.406;2022-09-24T02:09:49;37.60;;;17.50;;
72156;SDS011;60035;52.122;5.406;2022-09-24T02:12:26;36.65;;;16.92;;
72156;SDS011;60035;52.122;5.406;2022-09-24T02:15:02;38.92;;;16.98;;
72156;SDS011;60035;52.122;5.406;2022-09-24T02:17:37;36.03;;;16.17;;
72156;SDS011;60035;52.122;5.406;2022-09-24T02:20:09;35.92;;;15.82;;
72156;SDS011;60035;52.122;5.406;2022-09-24T02:22:39;36.80;;;16.35;;
72156;SDS011;60035;52.122;5.406;2022-09-24T02:25:08;41.58;;;18.75;;
72156;SDS011;60035;52.122;5.406;2022-09-24T02:30:05;38.65;;;15.75;;
72156;SDS011;60035;52.122;5.406;2022-09-24T02:32:33;37.33;;;16.30;;
72156;SDS011;60035;52.122;5.406;2022-09-24T02:35:05;37.10;;;16.15;;
72156;SDS011;60035;52.122;5.406;2022-09-24T02:37:43;36.92;;;16.55;;
72156;SDS011;60035;52.122;5.406;2022-09-24T02:40:13;39.75;;;17.40;;
72156;SDS011;60035;52.122;5.406;2022-09-24T02:42:40;36.22;;;16.38;;
72156;SDS011;60035;52.122;5.406;2022-09-24T02:45:09;36.25;;;16.00;;
72156;SDS011;60035;52.122;5.406;2022-09-24T02:47:36;40.50;;;16.65;;
72156;SDS011;60035;52.122;5.406;2022-09-24T02:50:03;38.08;;;16.48;;
72156;SDS011;60035;52.122;5.406;2022-09-24T02:52:30;37.08;;;16.15;;
72156;SDS011;60035;52.122;5.406;2022-09-24T02:54:56;40.00;;;16.55;;
72156;SDS011;60035;52.122;5.406;2022-09-24T02:57:22;39.65;;;15.93;;
72156;SDS011;60035;52.122;5.406;2022-09-24T02:59:49;38.00;;;15.48;;
72156;SDS011;60035;52.122;5.406;2022-09-24T03:02:15;39.42;;;15.50;;
72156;SDS011;60035;52.122;5.406;2022-09-24T03:04:42;35.25;;;14.68;;
72156;SDS011;60035;52.122;5.406;2022-09-24T03:07:08;34.47;;;14.70;;
72156;SDS011;60035;52.122;5.406;2022-09-24T03:12:05;36.90;;;14.75;;
72156;SDS011;60035;52.122;5.406;2022-09-24T03:14:32;33.38;;;15.57;;
72156;SDS011;60035;52.122;5.406;2022-09-24T03:16:58;34.63;;;14.68;;
72156;SDS011;60035;52.122;5.406;2022-09-24T03:19:25;35.72;;;15.13;;
72156;SDS011;60035;52.122;5.406;2022-09-24T03:21:51;37.95;;;15.27;;
72156;SDS011;60035;52.122;5.406;2022-09-24T03:24:17;36.60;;;15.18;;
72156;SDS011;60035;52.122;5.406;2022-09-24T03:26:44;34.45;;;14.93;;
72156;SDS011;60035;52.122;5.406;2022-09-24T03:29:10;35.72;;;15.70;;
72156;SDS011;60035;52.122;5.406;2022-09-24T03:31:37;34.80;;;15.80;;
72156;SDS011;60035;52.122;5.406;2022-09-24T03:34:03;33.70;;;15.68;;
72156;SDS011;60035;52.122;5.406;2022-09-24T03:36:30;37.00;;;17.23;;
72156;SDS011;60035;52.122;5.406;2022-09-24T03:38:56;37.33;;;14.55;;
72156;SDS011;60035;52.122;5.406;2022-09-24T03:41:23;36.22;;;14.52;;
72156;SDS011;60035;52.122;5.406;2022-09-24T03:43:52;35.63;;;14.57;;
72156;SDS011;60035;52.122;5.406;2022-09-24T03:46:19;34.67;;;15.18;;
72156;SDS011;60035;52.122;5.406;2022-09-24T03:48:45;37.35;;;16.63;;
72156;SDS011;60035;52.122;5.406;2022-09-24T03:51:14;35.90;;;17.00;;
72156;SDS011;60035;52.122;5.406;2022-09-24T03:53:43;32.53;;;14.50;;
72156;SDS011;60035;52.122;5.406;2022-09-24T03:56:10;34.35;;;15.60;;
72156;SDS011;60035;52.122;5.406;2022-09-24T03:58:37;35.20;;;15.30;;
72156;SDS011;60035;52.122;5.406;2022-09-24T04:01:07;37.50;;;15.93;;
72156;SDS011;60035;52.122;5.406;2022-09-24T04:03:35;35.60;;;15.32;;
72156;SDS011;60035;52.122;5.406;2022-09-24T04:06:02;36.38;;;15.48;;
72156;SDS011;60035;52.122;5.406;2022-09-24T04:08:29;34.75;;;16.58;;
72156;SDS011;60035;52.122;5.406;2022-09-24T04:10:56;36.60;;;16.30;;
72156;SDS011;60035;52.122;5.406;2022-09-24T04:13:23;37.83;;;17.90;;
72156;SDS011;60035;52.122;5.406;2022-09-24T04:15:49;36.00;;;16.13;;
72156;SDS011;60035;52.122;5.406;2022-09-24T04:18:16;35.92;;;15.05;;
72156;SDS011;60035;52.122;5.406;2022-09-24T04:20:43;36.67;;;15.50;;
72156;SDS011;60035;52.122;5.406;2022-09-24T04:23:10;35.17;;;16.13;;
72156;SDS011;60035;52.122;5.406;2022-09-24T04:25:37;34.90;;;16.30;;
72156;SDS011;60035;52.122;5.406;2022-09-24T04:28:06;36.95;;;17.10;;
72156;SDS011;60035;52.122;5.406;2022-09-24T04:30:33;35.92;;;17.55;;
72156;SDS011;60035;52.122;5.406;2022-09-24T04:33:01;34.90;;;17.20;;
72156;SDS011;60035;52.122;5.406;2022-09-24T04:35:28;34.60;;;14.85;;
72156;SDS011;60035;52.122;5.406;2022-09-24T04:37:56;34.85;;;16.27;;
72156;SDS011;60035;52.122;5.406;2022-09-24T04:40:22;33.67;;;16.33;;
72156;SDS011;60035;52.122;5.406;2022-09-24T04:42:49;33.15;;;15.27;;
72156;SDS011;60035;52.122;5.406;2022-09-24T04:45:15;33.03;;;16.13;;
72156;SDS011;60035;52.122;5.406;2022-09-24T04:47:46;33.40;;;15.68;;
72156;SDS011;60035;52.122;5.406;2022-09-24T04:50:17;30.70;;;14.18;;
72156;SDS011;60035;52.122;5.406;2022-09-24T04:52:44;34.85;;;16.35;;
72156;SDS011;60035;52.122;5.406;2022-09-24T04:55:10;35.05;;;16.17;;
72156;SDS011;60035;52.122;5.406;2022-09-24T04:57:37;33.85;;;16.60;;
72156;SDS011;60035;52.122;5.406;2022-09-24T05:00:05;34.80;;;14.98;;
72156;SDS011;60035;52.122;5.406;2022-09-24T05:02:34;31.75;;;15.35;;
72156;SDS011;60035;52.122;5.406;2022-09-24T05:05:00;31.92;;;15.30;;
72156;SDS011;60035;52.122;5.406;2022-09-24T05:07:27;32.88;;;15.70;;
72156;SDS011;60035;52.122;5.406;2022-09-24T05:09:53;30.58;;;13.95;;
72156;SDS011;60035;52.122;5.406;2022-09-24T05:12:20;30.85;;;14.02;;
72156;SDS011;60035;52.122;5.406;2022-09-24T05:14:46;32.92;;;15.35;;
72156;SDS011;60035;52.122;5.406;2022-09-24T05:17:13;28.65;;;13.32;;
72156;SDS011;60035;52.122;5.406;2022-09-24T05:19:40;30.40;;;13.75;;
72156;SDS011;60035;52.122;5.406;2022-09-24T05:22:07;31.30;;;14.00;;
72156;SDS011;60035;52.122;5.406;2022-09-24T05:24:33;32.15;;;16.23;;
72156;SDS011;60035;52.122;5.406;2022-09-24T05:27:00;30.25;;;15.15;;
72156;SDS011;60035;52.122;5.406;2022-09-24T05:29:40;32.15;;;13.68;;
72156;SDS011;60035;52.122;5.406;2022-09-24T05:32:09;32.03;;;13.73;;
72156;SDS011;60035;52.122;5.406;2022-09-24T05:34:37;30.83;;;14.82;;
72156;SDS011;60035;52.122;5.406;2022-09-24T05:37:06;30.25;;;14.65;;
72156;SDS011;60035;52.122;5.406;2022-09-24T05:39:32;32.08;;;14.90;;
72156;SDS011;60035;52.122;5.406;2022-09-24T05:41:59;29.83;;;16.17;;
72156;SDS011;60035;52.122;5.406;2022-09-24T05:44:29;31.88;;;14.85;;
72156;SDS011;60035;52.122;5.406;2022-09-24T05:46:56;33.33;;;15.68;;
72156;SDS011;60035;52.122;5.406;2022-09-24T05:49:23;31.27;;;16.13;;
72156;SDS011;60035;52.122;5.406;2022-09-24T05:51:49;30.10;;;13.77;;
72156;SDS011;60035;52.122;5.406;2022-09-24T05:54:16;31.20;;;14.23;;
72156;SDS011;60035;52.122;5.406;2022-09-24T05:56:43;28.85;;;13.13;;
72156;SDS011;60035;52.122;5.406;2022-09-24T05:59:10;30.70;;;13.80;;
72156;SDS011;60035;52.122;5.406;2022-09-24T06:01:38;28.83;;;13.18;;
72156;SDS011;60035;52.122;5.406;2022-09-24T06:04:04;31.58;;;14.98;;
72156;SDS011;60035;52.122;5.406;2022-09-24T06:06:34;30.75;;;14.18;;
72156;SDS011;60035;52.122;5.406;2022-09-24T06:09:00;28.45;;;13.07;;
72156;SDS011;60035;52.122;5.406;2022-09-24T06:11:27;30.65;;;14.82;;
72156;SDS011;60035;52.122;5.406;2022-09-24T06:16:31;27.75;;;12.60;;
72156;SDS011;60035;52.122;5.406;2022-09-24T06:18:59;30.52;;;14.80;;
72156;SDS011;60035;52.122;5.406;2022-09-24T06:21:25;28.98;;;13.77;;
72156;SDS011;60035;52.122;5.406;2022-09-24T06:23:52;28.50;;;13.90;;
72156;SDS011;60035;52.122;5.406;2022-09-24T06:26:18;26.88;;;12.50;;
72156;SDS011;60035;52.122;5.406;2022-09-24T06:28:44;29.88;;;12.80;;
72156;SDS011;60035;52.122;5.406;2022-09-24T06:31:11;32.05;;;14.27;;
72156;SDS011;60035;52.122;5.406;2022-09-24T06:33:37;30.25;;;13.23;;
72156;SDS011;60035;52.122;5.406;2022-09-24T06:36:05;27.50;;;13.00;;
72156;SDS011;60035;52.122;5.406;2022-09-24T06:38:32;28.95;;;14.23;;
72156;SDS011;60035;52.122;5.406;2022-09-24T06:40:59;29.83;;;13.88;;
72156;SDS011;60035;52.122;5.406;2022-09-24T06:43:28;28.58;;;13.27;;
72156;SDS011;60035;52.122;5.406;2022-09-24T06:45:55;28.77;;;14.63;;
72156;SDS011;60035;52.122;5.406;2022-09-24T06:48:22;28.33;;;14.55;;
72156;SDS011;60035;52.122;5.406;2022-09-24T06:50:49;30.25;;;14.98;;
72156;SDS011;60035;52.122;5.406;2022-09-24T06:53:16;27.92;;;14.35;;
72156;SDS011;60035;52.122;5.406;2022-09-24T06:55:43;30.33;;;14.25;;
72156;SDS011;60035;52.122;5.406;2022-09-24T06:58:16;27.40;;;12.48;;
72156;SDS011;60035;52.122;5.406;2022-09-24T07:01:03;30.30;;;14.57;;
72156;SDS011;60035;52.122;5.406;2022-09-24T07:03:30;29.73;;;12.98;;
72156;SDS011;60035;52.122;5.406;2022-09-24T07:05:59;30.52;;;14.73;;
72156;SDS011;60035;52.122;5.406;2022-09-24T07:08:27;29.08;;;14.40;;
72156;SDS011;60035;52.122;5.406;2022-09-24T07:10:54;31.65;;;13.75;;
72156;SDS011;60035;52.122;5.406;2022-09-24T07:13:20;33.25;;;13.98;;
72156;SDS011;60035;52.122;5.406;2022-09-24T07:15:47;29.13;;;13.35;;
72156;SDS011;60035;52.122;5.406;2022-09-24T07:18:15;30.38;;;14.98;;
72156;SDS011;60035;52.122;5.406;2022-09-24T07:20:42;28.77;;;13.48;;
72156;SDS011;60035;52.122;5.406;2022-09-24T07:23:09;29.75;;;12.68;;
72156;SDS011;60035;52.122;5.406;2022-09-24T07:25:37;27.45;;;13.68;;
72156;SDS011;60035;52.122;5.406;2022-09-24T07:28:05;28.70;;;13.52;;
72156;SDS011;60035;52.122;5.406;2022-09-24T07:30:35;32.35;;;15.23;;
72156;SDS011;60035;52.122;5.406;2022-09-24T07:33:02;31.20;;;14.60;;
72156;SDS011;60035;52.122;5.406;2022-09-24T07:35:29;26.83;;;13.80;;
72156;SDS011;60035;52.122;5.406;2022-09-24T07:38:03;26.60;;;12.25;;
72156;SDS011;60035;52.122;5.406;2022-09-24T07:40:31;26.85;;;13.15;;
72156;SDS011;60035;52.122;5.406;2022-09-24T07:42:59;25.58;;;12.82;;
72156;SDS011;60035;52.122;5.406;2022-09-24T07:45:26;26.95;;;13.40;;
72156;SDS011;60035;52.122;5.406;2022-09-24T07:47:55;26.70;;;11.52;;
72156;SDS011;60035;52.122;5.406;2022-09-24T07:50:25;23.48;;;12.10;;
72156;SDS011;60035;52.122;5.406;2022-09-24T07:52:53;26.48;;;12.77;;
72156;SDS011;60035;52.122;5.406;2022-09-24T07:55:20;24.83;;;12.10;;
72156;SDS011;60035;52.122;5.406;2022-09-24T07:57:51;25.60;;;12.45;;
72156;SDS011;60035;52.122;5.406;2022-09-24T08:00:20;24.92;;;12.98;;
72156;SDS011;60035;52.122;5.406;2022-09-24T08:02:47;24.60;;;12.27;;
72156;SDS011;60035;52.122;5.406;2022-09-24T08:05:14;26.02;;;12.85;;
72156;SDS011;60035;52.122;5.406;2022-09-24T08:07:41;25.48;;;12.50;;
72156;SDS011;60035;52.122;5.406;2022-09-24T08:10:08;25.13;;;11.95;;
72156;SDS011;60035;52.122;5.406;2022-09-24T08:12:35;26.20;;;12.63;;
72156;SDS011;60035;52.122;5.406;2022-09-24T08:15:01;24.80;;;11.88;;
72156;SDS011;60035;52.122;5.406;2022-09-24T08:17:28;25.85;;;12.23;;
72156;SDS011;60035;52.122;5.406;2022-09-24T08:19:55;24.65;;;11.25;;
72156;SDS011;60035;52.122;5.406;2022-09-24T08:22:22;25.98;;;12.45;;
72156;SDS011;60035;52.122;5.406;2022-09-24T08:24:50;23.98;;;12.25;;
72156;SDS011;60035;52.122;5.406;2022-09-24T08:27:17;27.92;;;13.32;;
72156;SDS011;60035;52.122;5.406;2022-09-24T08:29:45;27.75;;;12.73;;
72156;SDS011;60035;52.122;5.406;2022-09-24T08:32:12;27.42;;;12.20;;
72156;SDS011;60035;52.122;5.406;2022-09-24T08:34:38;27.95;;;13.10;;
72156;SDS011;60035;52.122;5.406;2022-09-24T08:37:06;28.55;;;13.75;;
72156;SDS011;60035;52.122;5.406;2022-09-24T08:39:33;29.02;;;13.80;;
72156;SDS011;60035;52.122;5.406;2022-09-24T08:42:02;30.02;;;14.60;;
72156;SDS011;60035;52.122;5.406;2022-09-24T08:44:37;28.05;;;13.23;;
72156;SDS011;60035;52.122;5.406;2022-09-24T08:47:37;27.27;;;12.00;;
72156;SDS011;60035;52.122;5.406;2022-09-24T08:50:12;27.83;;;12.23;;
72156;SDS011;60035;52.122;5.406;2022-09-24T09:00:28;29.42;;;13.85;;
72156;SDS011;60035;52.122;5.406;2022-09-24T09:03:03;30.00;;;13.23;;
72156;SDS011;60035;52.122;5.406;2022-09-24T09:11:31;28.27;;;13.63;;
72156;SDS011;60035;52.122;5.406;2022-09-24T09:14:15;30.08;;;13.45;;
72156;SDS011;60035;52.122;5.406;2022-09-24T09:19:27;28.63;;;13.02;;
72156;SDS011;60035;52.122;5.406;2022-09-24T09:22:00;31.42;;;15.48;;
72156;SDS011;60035;52.122;5.406;2022-09-24T09:24:49;31.30;;;13.70;;
72156;SDS011;60035;52.122;5.406;2022-09-24T09:27:18;31.85;;;13.07;;
72156;SDS011;60035;52.122;5.406;2022-09-24T09:30:03;31.73;;;14.77;;
72156;SDS011;60035;52.122;5.406;2022-09-24T09:32:53;28.52;;;12.88;;
72156;SDS011;60035;52.122;5.406;2022-09-24T09:39:00;31.27;;;14.02;;
72156;SDS011;60035;52.122;5.406;2022-09-24T09:41:47;30.63;;;14.15;;
72156;SDS011;60035;52.122;5.406;2022-09-24T09:44:24;30.52;;;13.88;;
72156;SDS011;60035;52.122;5.406;2022-09-24T09:46:54;27.90;;;12.20;;
72156;SDS011;60035;52.122;5.406;2022-09-24T09:49:51;31.70;;;14.23;;
72156;SDS011;60035;52.122;5.406;2022-09-24T09:52:21;28.23;;;13.93;;
72156;SDS011;60035;52.122;5.406;2022-09-24T09:54:49;27.88;;;13.02;;
72156;SDS011;60035;52.122;5.406;2022-09-24T09:57:17;30.58;;;13.60;;
72156;SDS011;60035;52.122;5.406;2022-09-24T09:59:48;30.10;;;13.18;;
72156;SDS011;60035;52.122;5.406;2022-09-24T10:02:20;25.42;;;12.18;;
72156;SDS011;60035;52.122;5.406;2022-09-24T10:04:53;30.65;;;14.07;;
72156;SDS011;60035;52.122;5.406;2022-09-24T10:07:22;31.83;;;14.93;;
72156;SDS011;60035;52.122;5.406;2022-09-24T10:10:10;31.30;;;16.85;;
72156;SDS011;60035;52.122;5.406;2022-09-24T10:12:38;35.35;;;19.17;;
72156;SDS011;60035;52.122;5.406;2022-09-24T10:15:15;33.33;;;17.20;;
72156;SDS011;60035;52.122;5.406;2022-09-24T10:17:43;37.25;;;19.80;;
72156;SDS011;60035;52.122;5.406;2022-09-24T10:20:20;29.00;;;13.70;;
72156;SDS011;60035;52.122;5.406;2022-09-24T10:22:58;25.98;;;12.68;;
72156;SDS011;60035;52.122;5.406;2022-09-24T10:25:28;28.45;;;12.82;;
72156;SDS011;60035;52.122;5.406;2022-09-24T10:27:58;30.13;;;13.30;;
72156;SDS011;60035;52.122;5.406;2022-09-24T10:30:58;24.65;;;11.57;;
72156;SDS011;60035;52.122;5.406;2022-09-24T10:33:36;24.00;;;12.15;;
72156;SDS011;60035;52.122;5.406;2022-09-24T10:36:05;25.63;;;10.45;;
72156;SDS011;60035;52.122;5.406;2022-09-24T10:38:37;24.30;;;10.57;;
72156;SDS011;60035;52.122;5.406;2022-09-24T10:41:14;25.55;;;11.27;;
72156;SDS011;60035;52.122;5.406;2022-09-24T10:44:10;25.27;;;11.18;;
72156;SDS011;60035;52.122;5.406;2022-09-24T10:49:33;23.42;;;11.95;;
72156;SDS011;60035;52.122;5.406;2022-09-24T10:58:00;21.52;;;10.30;;
72156;SDS011;60035;52.122;5.406;2022-09-24T11:00:39;22.23;;;11.68;;
72156;SDS011;60035;52.122;5.406;2022-09-24T11:05:55;21.73;;;10.85;;
72156;SDS011;60035;52.122;5.406;2022-09-24T11:08:27;19.85;;;9.20;;
72156;SDS011;60035;52.122;5.406;2022-09-24T11:24:22;18.23;;;9.00;;
72156;SDS011;60035;52.122;5.406;2022-09-24T11:30:28;16.02;;;7.70;;
72156;SDS011;60035;52.122;5.406;2022-09-24T11:35:55;15.45;;;7.13;;
72156;SDS011;60035;52.122;5.406;2022-09-24T11:38:50;15.75;;;6.78;;
72156;SDS011;60035;52.122;5.406;2022-09-24T11:46:09;16.33;;;6.32;;
72156;SDS011;60035;52.122;5.406;2022-09-24T11:54:41;8.48;;;3.00;;
72156;SDS011;60035;52.122;5.406;2022-09-24T11:57:22;11.10;;;3.08;;
72156;SDS011;60035;52.122;5.406;2022-09-24T12:00:00;8.02;;;1.67;;
72156;SDS011;60035;52.122;5.406;2022-09-24T12:02:32;7.15;;;2.00;;
72156;SDS011;60035;52.122;5.406;2022-09-24T12:10:22;10.93;;;1.98;;
72156;SDS011;60035;52.122;5.406;2022-09-24T12:15:57;9.40;;;1.75;;
72156;SDS011;60035;52.122;5.406;2022-09-24T12:18:40;7.50;;;1.90;;
72156;SDS011;60035;52.122;5.406;2022-09-24T12:21:14;8.82;;;2.55;;
72156;SDS011;60035;52.122;5.406;2022-09-24T12:23:45;18.00;;;4.70;;
72156;SDS011;60035;52.122;5.406;2022-09-24T12:26:15;6.93;;;1.90;;
72156;SDS011;60035;52.122;5.406;2022-09-24T12:31:48;11.18;;;2.42;;
72156;SDS011;60035;52.122;5.406;2022-09-24T12:34:44;10.07;;;2.72;;
72156;SDS011;60035;52.122;5.406;2022-09-24T12:37:14;9.45;;;2.35;;
72156;SDS011;60035;52.122;5.406;2022-09-24T12:40:00;9.30;;;2.95;;
72156;SDS011;60035;52.122;5.406;2022-09-24T12:42:44;7.45;;;2.17;;
72156;SDS011;60035;52.122;5.406;2022-09-24T12:45:18;10.93;;;2.78;;
72156;SDS011;60035;52.122;5.406;2022-09-24T12:47:54;8.52;;;2.30;;
72156;SDS011;60035;52.122;5.406;2022-09-24T12:50:24;8.82;;;2.40;;
72156;SDS011;60035;52.122;5.406;2022-09-24T12:52:52;9.93;;;2.38;;
72156;SDS011;60035;52.122;5.406;2022-09-24T12:55:23;6.63;;;2.00;;
72156;SDS011;60035;52.122;5.406;2022-09-24T12:58:02;7.20;;;1.75;;
72156;SDS011;60035;52.122;5.406;2022-09-24T13:02:58;7.63;;;3.03;;
72156;SDS011;60035;52.122;5.406;2022-09-24T13:05:27;9.20;;;2.72;;
72156;SDS011;60035;52.122;5.406;2022-09-24T13:13:22;6.65;;;1.85;;
72156;SDS011;60035;52.122;5.406;2022-09-24T13:15:57;6.85;;;1.92;;
72156;SDS011;60035;52.122;5.406;2022-09-24T13:18:24;7.05;;;2.05;;
72156;SDS011;60035;52.122;5.406;2022-09-24T13:20:58;6.07;;;1.45;;
72156;SDS011;60035;52.122;5.406;2022-09-24T13:23:42;8.43;;;2.20;;
72156;SDS011;60035;52.122;5.406;2022-09-24T13:26:13;7.28;;;1.90;;
72156;SDS011;60035;52.122;5.406;2022-09-24T13:31:37;7.60;;;1.90;;
72156;SDS011;60035;52.122;5.406;2022-09-24T13:34:25;7.13;;;1.85;;
72156;SDS011;60035;52.122;5.406;2022-09-24T13:37:09;7.10;;;1.83;;
72156;SDS011;60035;52.122;5.406;2022-09-24T13:39:50;7.97;;;3.42;;
72156;SDS011;60035;52.122;5.406;2022-09-24T13:45:01;6.50;;;2.45;;
72156;SDS011;60035;52.122;5.406;2022-09-24T13:47:45;6.20;;;2.15;;
72156;SDS011;60035;52.122;5.406;2022-09-24T13:50:53;8.40;;;3.15;;
72156;SDS011;60035;52.122;5.406;2022-09-24T13:53:19;8.45;;;2.42;;
72156;SDS011;60035;52.122;5.406;2022-09-24T13:55:56;10.02;;;3.65;;
72156;SDS011;60035;52.122;5.406;2022-09-24T13:58:26;7.25;;;2.58;;
72156;SDS011;60035;52.122;5.406;2022-09-24T14:01:00;9.15;;;2.90;;
72156;SDS011;60035;52.122;5.406;2022-09-24T14:03:37;9.68;;;3.15;;
72156;SDS011;60035;52.122;5.406;2022-09-24T14:06:14;11.32;;;4.05;;
72156;SDS011;60035;52.122;5.406;2022-09-24T14:08:45;11.23;;;4.40;;
72156;SDS011;60035;52.122;5.406;2022-09-24T14:11:14;9.20;;;3.20;;
72156;SDS011;60035;52.122;5.406;2022-09-24T14:13:45;10.65;;;4.05;;
72156;SDS011;60035;52.122;5.406;2022-09-24T14:16:22;8.60;;;3.67;;
72156;SDS011;60035;52.122;5.406;2022-09-24T14:19:02;9.23;;;3.60;;
72156;SDS011;60035;52.122;5.406;2022-09-24T14:24:07;7.25;;;2.75;;
72156;SDS011;60035;52.122;5.406;2022-09-24T14:26:42;9.23;;;3.60;;
72156;SDS011;60035;52.122;5.406;2022-09-24T14:29:18;11.23;;;4.60;;
72156;SDS011;60035;52.122;5.406;2022-09-24T14:31:52;12.40;;;4.10;;
72156;SDS011;60035;52.122;5.406;2022-09-24T14:36:55;7.30;;;2.90;;
72156;SDS011;60035;52.122;5.406;2022-09-24T14:39:26;8.05;;;2.70;;
72156;SDS011;60035;52.122;5.406;2022-09-24T14:41:54;9.43;;;3.25;;
72156;SDS011;60035;52.122;5.406;2022-09-24T14:44:26;7.45;;;2.60;;
72156;SDS011;60035;52.122;5.406;2022-09-24T14:46:55;7.78;;;2.45;;
72156;SDS011;60035;52.122;5.406;2022-09-24T14:54:59;10.02;;;3.60;;
72156;SDS011;60035;52.122;5.406;2022-09-24T14:57:34;9.23;;;2.80;;
72156;SDS011;60035;52.122;5.406;2022-09-24T15:00:24;9.05;;;2.53;;
72156;SDS011;60035;52.122;5.406;2022-09-24T15:02:57;9.23;;;3.33;;
72156;SDS011;60035;52.122;5.406;2022-09-24T15:05:27;10.75;;;3.13;;
72156;SDS011;60035;52.122;5.406;2022-09-24T15:08:28;9.75;;;3.40;;
72156;SDS011;60035;52.122;5.406;2022-09-24T15:10:54;10.63;;;3.10;;
72156;SDS011;60035;52.122;5.406;2022-09-24T15:13:33;10.45;;;2.63;;
72156;SDS011;60035;52.122;5.406;2022-09-24T15:16:02;10.25;;;2.70;;
72156;SDS011;60035;52.122;5.406;2022-09-24T15:18:41;7.88;;;2.50;;
72156;SDS011;60035;52.122;5.406;2022-09-24T15:21:08;7.82;;;1.88;;
72156;SDS011;60035;52.122;5.406;2022-09-24T15:23:36;8.23;;;1.80;;
72156;SDS011;60035;52.122;5.406;2022-09-24T15:26:02;7.82;;;2.10;;
72156;SDS011;60035;52.122;5.406;2022-09-24T15:28:29;7.15;;;2.17;;
72156;SDS011;60035;52.122;5.406;2022-09-24T15:30:56;9.70;;;2.08;;
72156;SDS011;60035;52.122;5.406;2022-09-24T15:33:23;7.60;;;2.05;;
72156;SDS011;60035;52.122;5.406;2022-09-24T15:35:49;7.22;;;1.75;;
72156;SDS011;60035;52.122;5.406;2022-09-24T15:38:17;8.63;;;2.20;;
72156;SDS011;60035;52.122;5.406;2022-09-24T15:40:44;7.32;;;1.98;;
72156;SDS011;60035;52.122;5.406;2022-09-24T15:43:22;8.77;;;1.67;;
72156;SDS011;60035;52.122;5.406;2022-09-24T15:45:49;9.65;;;2.05;;
72156;SDS011;60035;52.122;5.406;2022-09-24T15:48:16;8.10;;;2.20;;
72156;SDS011;60035;52.122;5.406;2022-09-24T15:50:44;10.30;;;2.30;;
72156;SDS011;60035;52.122;5.406;2022-09-24T15:53:30;10.38;;;2.80;;
72156;SDS011;60035;52.122;5.406;2022-09-24T15:55:58;7.40;;;2.30;;
72156;SDS011;60035;52.122;5.406;2022-09-24T15:58:26;6.72;;;1.73;;
72156;SDS011;60035;52.122;5.406;2022-09-24T16:00:52;7.93;;;1.95;;
72156;SDS011;60035;52.122;5.406;2022-09-24T16:03:24;6.95;;;2.15;;
72156;SDS011;60035;52.122;5.406;2022-09-24T16:05:52;10.75;;;2.38;;
72156;SDS011;60035;52.122;5.406;2022-09-24T16:08:20;10.15;;;3.00;;
72156;SDS011;60035;52.122;5.406;2022-09-24T16:10:48;10.82;;;1.83;;
72156;SDS011;60035;52.122;5.406;2022-09-24T16:13:15;9.18;;;2.78;;
72156;SDS011;60035;52.122;5.406;2022-09-24T16:15:42;9.18;;;2.80;;
72156;SDS011;60035;52.122;5.406;2022-09-24T16:18:13;10.80;;;2.90;;
72156;SDS011;60035;52.122;5.406;2022-09-24T16:20:41;9.60;;;2.78;;
72156;SDS011;60035;52.122;5.406;2022-09-24T16:23:11;7.30;;;1.85;;
72156;SDS011;60035;52.122;5.406;2022-09-24T16:25:40;9.13;;;2.05;;
72156;SDS011;60035;52.122;5.406;2022-09-24T16:28:08;7.60;;;2.22;;
72156;SDS011;60035;52.122;5.406;2022-09-24T16:30:35;9.05;;;2.25;;
72156;SDS011;60035;52.122;5.406;2022-09-24T16:33:04;8.90;;;3.08;;
72156;SDS011;60035;52.122;5.406;2022-09-24T16:35:30;8.27;;;1.63;;
72156;SDS011;60035;52.122;5.406;2022-09-24T16:37:57;12.80;;;2.42;;
72156;SDS011;60035;52.122;5.406;2022-09-24T16:40:23;11.13;;;2.70;;
72156;SDS011;60035;52.122;5.406;2022-09-24T16:42:50;9.57;;;2.50;;
72156;SDS011;60035;52.122;5.406;2022-09-24T16:45:16;9.30;;;3.05;;
72156;SDS011;60035;52.122;5.406;2022-09-24T16:47:43;11.45;;;2.40;;